Time;durP1;ratioP1;P1;durP2;ratioP2;P2;SDS_P1;SDS_P2;PMS_P1;PMS_P2;Temp;Humidity;BMP_temperature;BMP_pressure;BME280_temperature;BME280_humidity;BME280_pressure;Samples;Min_cycle;Max_cycle;Signal;HPM_P1;HPM_P2
2023/08/20 00:00:19;;;;;;;22.85;20.42;;;563.90;2432.00;;;;;;4989468;28;20117;-62
2023/08/20 00:02:46;;;;;;;25.48;21.83;;;563.80;2432.00;;;;;;4989697;28;20022;-62
2023/08/20 00:05:13;;;;;;;22.92;20.55;;;563.90;2432.00;;;;;;4992723;28;20109;-61
2023/08/20 00:07:40;;;;;;;21.98;19.75;;;563.80;2432.00;;;;;;4993217;28;20046;-62
2023/08/20 00:10:06;;;;;;;22.55;20.27;;;563.90;2432.00;;;;;;4992513;28;20035;-62
2023/08/20 00:12:32;;;;;;;22.63;20.40;;;563.90;2432.00;;;;;;4992699;28;20042;-62
2023/08/20 00:15:06;;;;;;;20.60;18.70;;;563.90;2432.00;;;;;;4992849;28;20038;-62
2023/08/20 00:17:33;;;;;;;20.45;18.40;;;564.00;2432.00;;;;;;4993371;28;20030;-62
2023/08/20 00:19:59;;;;;;;19.88;17.83;;;563.90;2432.00;;;;;;4993028;28;20045;-63
2023/08/20 00:22:26;;;;;;;23.00;19.25;;;563.90;2432.00;;;;;;4992357;28;20018;-62
2023/08/20 00:24:54;;;;;;;21.35;19.25;;;564.10;2432.00;;;;;;4992829;28;20042;-62
2023/08/20 00:27:20;;;;;;;19.50;17.70;;;564.10;2432.00;;;;;;4992760;28;20018;-63
2023/08/20 00:29:46;;;;;;;20.83;18.73;;;564.10;2432.00;;;;;;4992327;28;20488;-61
2023/08/20 00:32:12;;;;;;;21.48;19.38;;;588.80;2432.00;;;;;;4992892;28;20062;-62
2023/08/20 00:34:37;;;;;;;21.75;19.50;;;588.80;2432.00;;;;;;4992291;28;20038;-60
2023/08/20 00:37:03;;;;;;;21.58;19.27;;;588.80;2432.00;;;;;;4992364;28;20023;-62
2023/08/20 00:39:29;;;;;;;22.15;19.60;;;588.90;2432.00;;;;;;4979140;28;20038;-61
2023/08/20 00:41:55;;;;;;;21.60;19.48;;;588.90;2432.00;;;;;;4992821;28;20026;-60
2023/08/20 00:44:21;;;;;;;22.90;20.60;;;588.90;2432.00;;;;;;4992357;28;20061;-61
2023/08/20 00:46:47;;;;;;;22.40;20.38;;;588.90;2432.00;;;;;;4992380;28;20053;-62
2023/08/20 00:49:13;;;;;;;21.23;19.25;;;588.90;2432.00;;;;;;4992115;28;20354;-62
2023/08/20 00:51:39;;;;;;;20.20;18.30;;;588.90;2432.00;;;;;;4992207;28;20023;-62
2023/08/20 00:54:05;;;;;;;20.90;18.90;;;588.80;2432.00;;;;;;4992145;28;20026;-63
2023/08/20 00:56:31;;;;;;;21.25;19.05;;;588.80;2432.00;;;;;;4979483;28;20021;-62
2023/08/20 00:58:58;;;;;;;23.25;21.05;;;564.10;2432.00;;;;;;4991756;28;20034;-62
2023/08/20 01:01:23;;;;;;;21.73;19.73;;;588.80;2432.00;;;;;;4991950;28;20018;-62
2023/08/20 01:03:49;;;;;;;22.27;20.17;;;588.80;2432.00;;;;;;4991939;28;20076;-62
2023/08/20 01:06:37;;;;;;;22.10;20.00;;;588.80;2432.00;;;;;;4979141;28;20476;-62
2023/08/20 01:09:34;;;;;;;22.92;20.50;;;588.80;2432.00;;;;;;4991746;28;20505;-62
2023/08/20 01:12:02;;;;;;;22.55;20.15;;;588.80;2432.00;;;;;;4991741;28;20031;-62
2023/08/20 01:14:28;;;;;;;22.95;20.70;;;588.80;2432.00;;;;;;4990751;28;20037;-63
2023/08/20 01:16:53;;;;;;;23.60;21.40;;;588.80;2432.00;;;;;;4991625;28;20086;-64
2023/08/20 01:19:22;;;;;;;24.33;21.88;;;564.10;2432.00;;;;;;4992208;28;20069;-62
2023/08/20 01:22:06;;;;;;;25.63;23.23;;;564.10;2432.00;;;;;;4978607;28;20047;-63
2023/08/20 01:24:46;;;;;;;23.55;21.35;;;564.10;2432.00;;;;;;4991448;28;20132;-63
2023/08/20 01:27:15;;;;;;;20.58;18.67;;;564.10;2432.00;;;;;;4991974;28;20482;-63
2023/08/20 01:29:41;;;;;;;25.25;22.80;;;564.00;2432.00;;;;;;4991587;28;20026;-62
2023/08/20 01:32:08;;;;;;;26.33;23.50;;;564.00;2432.00;;;;;;4991617;28;20018;-61
2023/08/20 01:34:34;;;;;;;24.85;22.35;;;564.00;2432.00;;;;;;4990919;28;20026;-61
2023/08/20 01:36:59;;;;;;;25.23;22.40;;;564.00;2432.00;;;;;;4975929;28;20125;-62
2023/08/20 01:39:25;;;;;;;24.65;22.30;;;564.00;2432.00;;;;;;4988497;28;20046;-59
2023/08/20 01:41:51;;;;;;;24.00;21.60;;;564.00;2432.00;;;;;;4977921;28;20050;-61
2023/08/20 01:44:16;;;;;;;24.70;22.33;;;563.90;2432.00;;;;;;4976448;28;20096;-66
2023/08/20 01:46:42;;;;;;;26.23;22.98;;;563.90;2432.00;;;;;;4979206;28;20396;-63
2023/08/20 01:49:08;;;;;;;23.65;21.45;;;563.90;2432.00;;;;;;4976892;28;20373;-60
2023/08/20 01:51:34;;;;;;;25.63;23.08;;;563.90;2432.00;;;;;;4971521;28;20030;-61
2023/08/20 01:53:59;;;;;;;24.27;21.88;;;563.90;2432.00;;;;;;4971548;28;20030;-62
2023/08/20 01:56:25;;;;;;;25.30;22.63;;;563.90;2432.00;;;;;;4989841;28;20105;-62
2023/08/20 01:58:51;;;;;;;21.98;19.80;;;563.80;2432.00;;;;;;4990986;28;20508;-61
2023/08/20 02:01:16;;;;;;;24.90;22.38;;;563.70;2432.00;;;;;;4972118;28;20085;-63
2023/08/20 02:03:42;;;;;;;25.58;23.05;;;563.70;2432.00;;;;;;4971654;28;20030;-63
2023/08/20 02:06:08;;;;;;;25.73;23.13;;;563.70;2432.00;;;;;;4970988;28;20026;-61
2023/08/20 02:08:33;;;;;;;25.15;22.83;;;563.70;2432.00;;;;;;4971301;28;20488;-63
2023/08/20 02:11:03;;;;;;;23.77;21.17;;;563.70;2432.00;;;;;;4984480;28;20102;-62
2023/08/20 02:13:30;;;;;;;26.65;23.73;;;563.70;2432.00;;;;;;4971196;28;20173;-62
2023/08/20 02:16:03;;;;;;;25.65;22.73;;;563.60;2432.00;;;;;;4971127;28;20033;-62
2023/08/20 02:18:30;;;;;;;24.75;22.30;;;563.70;2432.00;;;;;;4983857;28;20026;-63
2023/08/20 02:20:56;;;;;;;23.05;20.67;;;563.60;2432.00;;;;;;4970842;28;20023;-63
2023/08/20 02:23:23;;;;;;;25.58;22.98;;;563.70;2432.00;;;;;;4970951;28;20032;-62
2023/08/20 02:25:48;;;;;;;23.95;21.55;;;563.60;2432.00;;;;;;4970960;28;20042;-62
2023/08/20 02:28:15;;;;;;;24.70;22.30;;;563.60;2432.00;;;;;;4971544;28;20470;-62
2023/08/20 02:30:45;;;;;;;25.20;22.52;;;563.60;2432.00;;;;;;4983261;28;20058;-60
2023/08/20 02:33:11;;;;;;;24.17;21.35;;;563.60;2432.00;;;;;;4971048;28;20031;-61
2023/08/20 02:35:37;;;;;;;25.33;22.92;;;563.60;2432.00;;;;;;4970592;28;20026;-60
2023/08/20 02:38:04;;;;;;;25.67;22.98;;;563.60;2432.00;;;;;;4970812;28;20050;-62
2023/08/20 02:40:30;;;;;;;24.58;22.08;;;563.60;2432.00;;;;;;4970550;28;20069;-62
2023/08/20 02:42:56;;;;;;;23.92;21.50;;;563.60;2432.00;;;;;;4983279;28;20165;-61
2023/08/20 02:45:22;;;;;;;23.90;21.70;;;563.60;2432.00;;;;;;4970876;28;20117;-62
2023/08/20 02:47:49;;;;;;;25.50;22.98;;;563.60;2432.00;;;;;;4970721;28;20105;-60
2023/08/20 02:50:15;;;;;;;25.02;22.63;;;563.50;2432.00;;;;;;4970164;28;20031;-61
2023/08/20 02:52:45;;;;;;;26.02;23.33;;;563.50;2432.00;;;;;;4970722;28;20025;-62
2023/08/20 02:55:11;;;;;;;28.65;22.55;;;563.50;2432.00;;;;;;4970656;28;20420;-63
2023/08/20 02:57:36;;;;;;;23.63;21.17;;;563.50;2432.00;;;;;;4970488;28;20023;-62
2023/08/20 03:00:03;;;;;;;25.52;22.92;;;563.50;2432.00;;;;;;4970922;28;20057;-63
2023/08/20 03:02:29;;;;;;;23.92;21.63;;;563.60;2432.00;;;;;;4970523;28;20023;-62
2023/08/20 03:04:56;;;;;;;23.92;21.48;;;563.50;2432.00;;;;;;4970112;28;20023;-63
2023/08/20 03:07:22;;;;;;;23.58;21.20;;;563.50;2432.00;;;;;;4970499;28;20015;-62
2023/08/20 03:09:48;;;;;;;23.92;21.42;;;563.50;2432.00;;;;;;4970216;28;20042;-62
2023/08/20 03:12:14;;;;;;;26.02;23.15;;;563.50;2432.00;;;;;;4970483;28;20027;-63
2023/08/20 03:14:39;;;;;;;24.02;21.50;;;563.50;2432.00;;;;;;4970273;28;20118;-62
2023/08/20 03:17:05;;;;;;;24.67;22.13;;;563.50;2432.00;;;;;;4976958;28;20027;-64
2023/08/20 03:19:35;;;;;;;24.35;21.63;;;563.50;2432.00;;;;;;4958722;28;20126;-62
2023/08/20 03:22:00;;;;;;;23.60;21.33;;;563.50;2432.00;;;;;;4970218;28;20029;-62
2023/08/20 03:24:26;;;;;;;22.83;20.55;;;563.50;2432.00;;;;;;4969817;28;20031;-62
2023/08/20 03:26:52;;;;;;;22.38;20.10;;;563.50;2432.00;;;;;;4970457;28;20030;-62
2023/08/20 03:29:17;;;;;;;23.25;20.90;;;563.50;2432.00;;;;;;4979379;28;20153;-63
2023/08/20 03:31:45;;;;;;;24.27;21.77;;;563.50;2432.00;;;;;;4973920;28;20050;-63
2023/08/20 03:34:10;;;;;;;23.88;21.67;;;563.40;2432.00;;;;;;4970152;28;20083;-64
2023/08/20 03:36:36;;;;;;;25.00;22.17;;;563.30;2432.00;;;;;;4969662;28;20486;-62
2023/08/20 03:39:03;;;;;;;23.55;21.05;;;563.30;2432.00;;;;;;4973114;28;20129;-63
2023/08/20 03:41:29;;;;;;;22.95;20.80;;;563.30;2432.00;;;;;;4973945;28;20385;-62
2023/08/20 03:43:55;;;;;;;23.85;21.27;;;563.20;2432.00;;;;;;4973903;28;20022;-61
2023/08/20 03:46:21;;;;;;;23.98;21.60;;;563.30;2432.00;;;;;;4974148;28;20035;-61
2023/08/20 03:48:47;;;;;;;25.25;22.75;;;563.30;2432.00;;;;;;4973697;28;20030;-62
2023/08/20 03:51:13;;;;;;;28.15;22.48;;;563.30;2432.00;;;;;;4973970;28;20031;-62
2023/08/20 03:53:38;;;;;;;25.05;22.55;;;563.30;2432.00;;;;;;4973962;28;20074;-62
2023/08/20 03:56:04;;;;;;;26.42;23.77;;;563.40;2432.00;;;;;;4973753;28;20038;-62
2023/08/20 03:58:30;;;;;;;33.47;24.10;;;563.40;2432.00;;;;;;4973752;28;20023;-63
2023/08/20 04:00:56;;;;;;;27.25;24.45;;;563.50;2432.00;;;;;;4973490;28;20031;-62
2023/08/20 04:03:21;;;;;;;26.27;23.73;;;563.60;2432.00;;;;;;4986026;28;20030;-61
2023/08/20 04:05:50;;;;;;;25.25;22.65;;;563.60;2432.00;;;;;;4973813;28;20027;-62
2023/08/20 04:08:16;;;;;;;25.85;23.25;;;563.60;2432.00;;;;;;4973379;28;20030;-64
2023/08/20 04:10:45;;;;;;;27.35;21.40;;;563.60;2432.00;;;;;;4973282;28;20077;-60
2023/08/20 04:13:11;;;;;;;22.92;20.48;;;563.60;2432.00;;;;;;4973337;28;20047;-62
2023/08/20 04:15:37;;;;;;;22.30;19.92;;;563.60;2432.00;;;;;;4973274;28;20101;-63
2023/08/20 04:18:03;;;;;;;23.35;19.95;;;563.60;2432.00;;;;;;4973758;28;20102;-62
2023/08/20 04:20:29;;;;;;;24.15;21.02;;;563.60;2432.00;;;;;;4972657;28;20193;-62
2023/08/20 04:22:54;;;;;;;22.00;19.88;;;563.80;2432.00;;;;;;4973018;28;20541;-61
2023/08/20 04:25:20;;;;;;;23.15;20.67;;;563.70;2432.00;;;;;;4973097;28;20027;-62
2023/08/20 04:27:46;;;;;;;23.42;21.25;;;563.80;2432.00;;;;;;4973260;28;20101;-62
2023/08/20 04:30:12;;;;;;;21.33;19.10;;;563.80;2432.00;;;;;;4986120;28;20480;-62
2023/08/20 04:32:37;;;;;;;23.75;21.25;;;563.90;2432.00;;;;;;4973068;28;20338;-63
2023/08/20 04:35:03;;;;;;;24.70;22.15;;;564.10;2432.00;;;;;;4972950;28;20029;-62
2023/08/20 04:37:29;;;;;;;24.33;22.05;;;588.80;2432.00;;;;;;4973204;28;20033;-62
2023/08/20 04:39:55;;;;;;;23.95;21.73;;;588.90;2432.00;;;;;;4972450;28;20045;-62
2023/08/20 04:42:20;;;;;;;24.30;22.00;;;589.10;2432.00;;;;;;4973075;28;20037;-62
2023/08/20 04:44:46;;;;;;;24.13;21.45;;;614.40;2432.00;;;;;;4985465;28;20489;-62
2023/08/20 04:47:15;;;;;;;25.00;22.50;;;614.80;2432.00;;;;;;4973285;28;20038;-64
2023/08/20 04:49:41;;;;;;;25.15;22.63;;;614.60;2432.00;;;;;;4972579;28;20480;-61
2023/08/20 04:52:06;;;;;;;26.38;23.73;;;614.60;2432.00;;;;;;4972358;28;20121;-62
2023/08/20 04:54:32;;;;;;;22.92;20.55;;;614.50;2432.00;;;;;;4972462;28;20109;-63
2023/08/20 04:56:58;;;;;;;23.65;21.45;;;614.90;2432.00;;;;;;4972733;28;20062;-62
2023/08/20 04:59:23;;;;;;;24.33;22.00;;;640.90;2432.00;;;;;;4972548;28;20026;-63
2023/08/20 05:01:49;;;;;;;24.00;21.58;;;666.50;2432.00;;;;;;4972676;28;20155;-61
2023/08/20 05:04:15;;;;;;;22.00;19.98;;;;;;;;;;4972305;28;20030;-61
2023/08/20 05:06:41;;;;;;;21.10;19.15;;;;;;;;;;4972316;28;20027;-62
2023/08/20 05:09:07;;;;;;;21.35;19.35;;;;;;;;;;4972170;28;20082;-63
2023/08/20 05:11:33;;;;;;;21.67;19.63;;;;;;;;;;4972543;28;20032;-62
2023/08/20 05:14:00;;;;;;;21.55;18.83;;;;;;;;;;4972173;28;20135;-62
2023/08/20 05:16:26;;;;;;;22.77;20.67;;;;;;;;;;4972275;28;20031;-61
2023/08/20 05:18:52;;;;;;;23.20;20.98;;;;;;;;;;4972467;28;20089;-61
2023/08/20 05:21:17;;;;;;;23.83;21.67;;;691.60;2432.00;;;;;;4971838;28;20030;-62
2023/08/20 05:23:43;;;;;;;22.40;20.25;;;691.60;2432.00;;;;;;4972207;28;20054;-61
2023/08/20 05:26:09;;;;;;;24.50;22.27;;;692.10;2432.00;;;;;;4972350;28;20110;-61
2023/08/20 05:28:35;;;;;;;24.45;22.15;;;;;;;;;;4975204;28;20384;-62
2023/08/20 05:31:01;;;;;;;22.80;20.70;;;;;;;;;;4981803;28;20043;-62
2023/08/20 05:33:27;;;;;;;24.52;22.08;;;;;;;;;;4972020;28;20508;-63
2023/08/20 05:35:53;;;;;;;27.17;22.92;;;;;;;;;;4971627;28;20169;-63
2023/08/20 05:38:19;;;;;;;23.83;21.75;;;;;;;;;;4971653;28;20035;-63
2023/08/20 05:40:45;;;;;;;24.35;21.95;;;;;;;;;;4971931;28;20034;-63
2023/08/20 05:43:11;;;;;;;24.08;21.77;;;;;;;;;;4972129;28;20110;-65
2023/08/20 05:45:37;;;;;;;24.95;22.52;;;;;;;;;;4971994;28;20026;-64
2023/08/20 05:48:03;;;;;;;24.77;22.52;;;;;;;;;;4975975;28;20035;-64
2023/08/20 05:50:29;;;;;;;23.13;20.92;;;;;;;;;;4979014;28;20019;-64
2023/08/20 05:52:55;;;;;;;23.50;21.30;;;742.70;2432.00;;;;;;4980017;28;20046;-64
2023/08/20 05:55:21;;;;;;;24.38;22.17;;;742.70;2432.00;;;;;;4984681;28;20050;-63
2023/08/20 05:57:47;;;;;;;24.23;21.80;;;;;;;;;;4971689;28;20026;-64
2023/08/20 06:00:13;;;;;;;23.38;21.27;;;;;;;;;;4971681;28;20042;-64
2023/08/20 06:02:40;;;;;;;22.95;20.92;;;;;;;;;;4971513;28;20031;-63
2023/08/20 06:05:08;;;;;;;25.05;22.73;;;;;;;;;;4971592;28;20173;-63
2023/08/20 06:07:33;;;;;;;24.52;22.23;;;768.10;2432.00;;;;;;4971474;28;20358;-64
2023/08/20 06:09:59;;;;;;;23.50;21.23;;;;;;;;;;4971159;28;20045;-63
2023/08/20 06:12:25;;;;;;;23.48;21.02;;;;;;;;;;4971072;28;20035;-62
2023/08/20 06:14:51;;;;;;;24.42;22.15;;;793.70;2432.00;;;;;;4971606;28;20034;-62
2023/08/20 06:17:17;;;;;;;23.42;21.40;;;793.70;2432.00;;;;;;4971298;28;20019;-64
2023/08/20 06:19:43;;;;;;;23.45;21.20;;;819.30;2432.00;;;;;;4971479;28;20050;-63
2023/08/20 06:22:09;;;;;;;21.33;19.30;;;819.80;2380.80;;;;;;4976470;28;20033;-65
2023/08/20 06:24:35;;;;;;;22.90;20.73;;;845.20;2304.00;;;;;;4986319;28;21243;-63
2023/08/20 06:27:01;;;;;;;22.13;20.15;;;845.70;2201.60;;;;;;4971328;28;20022;-63
2023/08/20 06:29:26;;;;;;;20.77;19.08;;;870.70;2124.80;;;;;;4981084;28;20082;-63
2023/08/20 06:31:52;;;;;;;20.75;18.85;;;896.50;2022.40;;;;;;4973737;28;20026;-62
2023/08/20 06:34:18;;;;;;;23.00;20.67;;;947.40;1868.80;;;;;;4971279;28;20031;-65
2023/08/20 06:36:43;;;;;;;21.80;19.65;;;947.70;1894.40;;;;;;4970924;28;20080;-63
2023/08/20 06:39:09;;;;;;;21.85;19.95;;;973.20;1817.60;;;;;;4970493;28;20061;-64
2023/08/20 06:41:35;;;;;;;21.33;19.05;;;973.70;1766.40;;;;;;4970680;28;20023;-66
2023/08/20 06:44:02;;;;;;;21.67;19.88;;;972.90;1817.60;;;;;;4971061;28;20055;-65
2023/08/20 06:46:27;;;;;;;22.33;20.33;;;998.60;1792.00;;;;;;4975867;28;20019;-66
2023/08/20 06:48:53;;;;;;;22.27;20.42;;;1024.10;1689.60;;;;;;4978693;28;20436;-67
2023/08/20 06:51:21;;;;;;;21.88;20.13;;;1050.00;1638.40;;;;;;4971086;28;20027;-66
2023/08/20 06:53:47;;;;;;;24.05;22.05;;;1050.20;1612.80;;;;;;4987143;28;20092;-63
2023/08/20 06:56:13;;;;;;;23.90;21.88;;;1075.30;1561.60;;;;;;4980139;28;20031;-64
2023/08/20 06:58:40;;;;;;;24.83;23.00;;;1075.90;1510.40;;;;;;4983402;28;20558;-64
2023/08/20 07:01:07;;;;;;;24.05;22.10;;;1101.30;1484.80;;;;;;4976484;28;20053;-63
2023/08/20 07:03:37;;;;;;;23.88;21.83;;;1126.80;1459.20;;;;;;4983941;28;20034;-66
2023/08/20 07:06:03;;;;;;;24.85;22.85;;;1126.80;1459.20;;;;;;4976285;28;20030;-64
2023/08/20 07:08:29;;;;;;;25.42;23.40;;;1126.90;1433.60;;;;;;4970472;28;20065;-66
2023/08/20 07:10:55;;;;;;;23.23;21.27;;;1152.40;1382.40;;;;;;4970191;28;20484;-63
2023/08/20 07:13:21;;;;;;;25.08;23.00;;;1127.10;1408.00;;;;;;4977575;28;20053;-64
2023/08/20 07:15:47;;;;;;;23.80;21.90;;;1152.50;1356.80;;;;;;4975516;28;20058;-64
2023/08/20 07:18:14;;;;;;;23.20;21.27;;;1152.70;1356.80;;;;;;4970834;28;20060;-64
2023/08/20 07:20:43;;;;;;;23.95;21.85;;;1127.10;1408.00;;;;;;4953219;28;20039;-64
2023/08/20 07:23:10;;;;;;;24.27;22.23;;;1127.10;1408.00;;;;;;4970396;28;20029;-62
2023/08/20 07:25:39;;;;;;;24.08;22.38;;;1127.10;1382.40;;;;;;4970107;28;20102;-64
2023/08/20 07:28:06;;;;;;;23.67;21.58;;;1152.50;1331.20;;;;;;4970291;28;20078;-65
2023/08/20 07:30:32;;;;;;;24.40;22.73;;;1177.70;1331.20;;;;;;4989205;28;20038;-64
2023/08/20 07:32:58;;;;;;;23.98;22.17;;;1178.30;1280.00;;;;;;4970228;28;20026;-64
2023/08/20 07:35:24;;;;;;;25.63;22.83;;;1203.60;1254.40;;;;;;4970081;28;20030;-65
2023/08/20 07:37:50;;;;;;;24.10;22.23;;;1178.20;1280.00;;;;;;4969810;28;20086;-63
2023/08/20 07:40:16;;;;;;;22.65;21.02;;;1177.60;1280.00;;;;;;4982642;28;20062;-64
2023/08/20 07:42:42;;;;;;;27.08;25.33;;;1177.70;1280.00;;;;;;4970499;28;20022;-64
2023/08/20 07:45:09;;;;;;;26.02;24.08;;;1203.90;1228.80;;;;;;4970080;28;20031;-65
2023/08/20 07:47:36;;;;;;;32.40;25.80;;;1229.70;1203.20;;;;;;4970157;28;20050;-63
2023/08/20 07:50:03;;;;;;;25.80;23.90;;;1229.50;1203.20;;;;;;4970405;28;20030;-64
2023/08/20 07:52:28;;;;;;;25.65;23.70;;;1203.90;1254.40;;;;;;4969908;28;20494;-62
2023/08/20 07:54:54;;;;;;;27.00;24.98;;;1203.70;1254.40;;;;;;4970295;28;20153;-64
2023/08/20 07:57:20;;;;;;;25.45;23.48;;;1229.70;1203.20;;;;;;4970440;28;20019;-64
2023/08/20 07:59:46;;;;;;;26.38;24.58;;;1254.60;1203.20;;;;;;4969751;28;20031;-64
2023/08/20 08:02:12;;;;;;;25.60;23.73;;;;;;;;;;4970759;28;20034;-65
2023/08/20 08:04:39;;;;;;;27.00;24.98;;;;;;;;;;4975615;28;20042;-63
2023/08/20 08:07:05;;;;;;;24.90;23.10;;;;;;;;;;4976650;28;20069;-64
2023/08/20 08:09:32;;;;;;;26.13;24.20;;;;;;;;;;4983793;28;20038;-63
2023/08/20 08:11:59;;;;;;;26.35;24.40;;;;;;;;;;4988910;28;20070;-64
2023/08/20 08:14:25;;;;;;;26.23;24.33;;;;;;;;;;4989475;28;20034;-64
2023/08/20 08:16:51;;;;;;;24.55;22.67;;;;;;;;;;4989532;28;20027;-64
2023/08/20 08:19:17;;;;;;;26.23;24.08;;;;;;;;;;4989031;28;20039;-66
2023/08/20 08:21:44;;;;;;;26.95;24.90;;;1254.60;1177.60;;;;;;4989230;28;20034;-64
2023/08/20 08:24:14;;;;;;;25.83;23.73;;;1254.80;1177.60;;;;;;4990410;28;20033;-64
2023/08/20 08:26:40;;;;;;;27.10;25.30;;;1228.80;1203.20;;;;;;4992660;28;20022;-65
2023/08/20 08:29:07;;;;;;;28.08;26.23;;;1152.60;1280.00;;;;;;4989003;28;20027;-63
2023/08/20 08:31:34;;;;;;;25.45;23.60;;;1178.20;1228.80;;;;;;4973173;28;20070;-64
2023/08/20 08:34:01;;;;;;;26.27;24.42;;;1152.70;1280.00;;;;;;4986627;28;20121;-65
2023/08/20 08:36:26;;;;;;;27.25;25.27;;;1152.70;1280.00;;;;;;4983379;28;20077;-63
2023/08/20 08:38:52;;;;;;;26.52;24.25;;;1152.50;1280.00;;;;;;4992517;28;20038;-65
2023/08/20 08:41:22;;;;;;;25.48;23.52;;;1152.00;1305.60;;;;;;4992761;28;20087;-63
2023/08/20 08:43:49;;;;;;;22.40;20.58;;;;;;;;;;4992390;28;20057;-65
2023/08/20 08:46:15;;;;;;;22.50;20.80;;;1050.10;1408.00;;;;;;5003265;28;20041;-62
2023/08/20 08:48:43;;;;;;;24.48;22.50;;;998.60;1536.00;;;;;;4993905;28;20022;-65
2023/08/20 08:51:09;;;;;;;24.63;21.83;;;947.90;1561.60;;;;;;4984895;28;20034;-63
2023/08/20 08:53:35;;;;;;;23.10;21.02;;;922.00;1664.00;;;;;;4979837;28;20477;-63
2023/08/20 08:56:02;;;;;;;23.75;21.55;;;922.10;1664.00;;;;;;4976410;28;20034;-63
2023/08/20 08:58:28;;;;;;;21.35;19.58;;;922.00;1664.00;;;;;;4992033;28;20027;-64
2023/08/20 09:00:54;;;;;;;22.30;20.40;;;947.30;1612.80;;;;;;4992250;28;20198;-63
2023/08/20 09:03:20;;;;;;;21.55;19.58;;;922.50;1638.40;;;;;;4992500;28;20461;-64
2023/08/20 09:05:53;;;;;;;23.15;21.33;;;947.50;1664.00;;;;;;4991649;28;20022;-63
2023/08/20 09:08:37;;;;;;;22.17;20.30;;;947.30;1664.00;;;;;;4983325;28;20031;-62
2023/08/20 09:11:03;;;;;;;23.77;21.73;;;896.90;1689.60;;;;;;4972307;28;20485;-62
2023/08/20 09:13:37;;;;;;;23.83;21.42;;;896.30;1715.20;;;;;;4972101;28;20074;-63
2023/08/20 09:16:05;;;;;;;26.27;23.88;;;921.70;1740.80;;;;;;4986214;28;20117;-62
2023/08/20 09:18:31;;;;;;;22.13;20.17;;;922.00;1715.20;;;;;;4991729;28;20117;-63
2023/08/20 09:20:58;;;;;;;25.13;22.75;;;896.80;1715.20;;;;;;4991551;28;20109;-63
2023/08/20 09:23:28;;;;;;;23.50;21.60;;;896.40;1715.20;;;;;;4991553;28;20022;-63
2023/08/20 09:25:54;;;;;;;21.77;19.83;;;896.80;1740.80;;;;;;4991791;28;20531;-60
2023/08/20 09:28:21;;;;;;;20.67;19.00;;;896.90;1715.20;;;;;;4991882;28;20018;-63
2023/08/20 09:31:02;;;;;;;19.48;17.88;;;921.60;1740.80;;;;;;4991521;28;20388;-62
2023/08/20 09:33:29;;;;;;;21.60;19.85;;;921.70;1689.60;;;;;;4991234;28;20088;-62
2023/08/20 09:35:55;;;;;;;20.05;18.45;;;896.90;1689.60;;;;;;4990913;28;20538;-62
2023/08/20 09:38:22;;;;;;;21.33;19.65;;;896.90;1689.60;;;;;;4991689;28;20433;-62
2023/08/20 09:40:57;;;;;;;20.52;18.73;;;896.80;1715.20;;;;;;4991226;28;20445;-63
2023/08/20 09:43:30;;;;;;;20.77;18.65;;;896.70;1740.80;;;;;;4991538;28;20106;-62
2023/08/20 09:45:58;;;;;;;20.33;18.67;;;896.40;1740.80;;;;;;4990770;28;20362;-62
2023/08/20 09:48:27;;;;;;;20.30;18.27;;;896.60;1715.20;;;;;;4988821;28;20030;-62
2023/08/20 09:50:59;;;;;;;19.70;17.90;;;896.70;1689.60;;;;;;4988820;28;20030;-61
2023/08/20 09:53:48;;;;;;;19.58;17.88;;;896.60;1766.40;;;;;;4990090;28;20027;-62
2023/08/20 09:56:30;;;;;;;19.25;17.75;;;896.90;1689.60;;;;;;4994359;28;20117;-63
2023/08/20 09:58:58;;;;;;;23.45;16.80;;;896.80;1715.20;;;;;;5000658;28;20018;-62
2023/08/20 10:01:26;;;;;;;19.23;17.73;;;896.90;1689.60;;;;;;5000894;28;20773;-63
2023/08/20 10:03:51;;;;;;;19.75;17.92;;;896.60;1740.80;;;;;;4979026;28;20034;-66
2023/08/20 10:06:18;;;;;;;18.42;16.75;;;896.60;1715.20;;;;;;4990595;28;20527;-63
2023/08/20 10:08:46;;;;;;;18.60;16.90;;;871.30;1715.20;;;;;;4991261;28;20092;-62
2023/08/20 10:11:12;;;;;;;16.75;15.00;;;871.10;1715.20;;;;;;4990016;28;20034;-62
2023/08/20 10:13:38;;;;;;;18.40;16.48;;;871.10;1715.20;;;;;;4989842;28;20051;-63
2023/08/20 10:16:04;;;;;;;17.30;15.80;;;871.10;1715.20;;;;;;4989471;28;20023;-62
2023/08/20 10:18:30;;;;;;;18.52;16.63;;;870.50;1766.40;;;;;;4989744;28;20555;-63
2023/08/20 10:21:00;;;;;;;18.80;17.00;;;870.50;1766.40;;;;;;4988953;28;20046;-61
2023/08/20 10:23:26;;;;;;;20.23;18.42;;;870.50;1766.40;;;;;;4988839;28;20061;-62
2023/08/20 10:25:53;;;;;;;17.15;15.55;;;870.70;1792.00;;;;;;4989240;28;20050;-63
2023/08/20 10:28:26;;;;;;;18.83;16.58;;;845.60;1740.80;;;;;;4989123;28;20451;-61
2023/08/20 10:31:15;;;;;;;16.63;15.10;;;870.50;1766.40;;;;;;4988991;28;20034;-62
2023/08/20 10:33:47;;;;;;;16.52;15.13;;;845.20;1766.40;;;;;;4989086;28;20030;-61
2023/08/20 10:36:22;;;;;;;16.48;14.35;;;845.00;1817.60;;;;;;4989149;28;20030;-63
2023/08/20 10:38:49;;;;;;;15.68;14.13;;;845.40;1792.00;;;;;;4975978;28;20033;-62
2023/08/20 10:41:18;;;;;;;15.65;14.35;;;845.70;1766.40;;;;;;4988670;28;20041;-63
2023/08/20 10:43:52;;;;;;;15.40;13.93;;;870.40;1792.00;;;;;;4988563;28;20027;-62
2023/08/20 10:46:23;;;;;;;15.13;13.77;;;845.40;1715.20;;;;;;4988585;28;20065;-62
2023/08/20 10:48:51;;;;;;;15.20;13.65;;;845.70;1766.40;;;;;;4988562;28;20031;-62
2023/08/20 10:51:28;;;;;;;17.38;13.10;;;845.60;1740.80;;;;;;4988523;28;20041;-63
2023/08/20 10:54:00;;;;;;;19.45;14.80;;;845.30;1766.40;;;;;;4988905;28;20033;-62
2023/08/20 10:56:44;;;;;;;16.23;14.60;;;845.20;1792.00;;;;;;4988064;28;20057;-62
2023/08/20 10:59:27;;;;;;;14.93;13.68;;;845.20;1817.60;;;;;;4988596;28;20631;-63
2023/08/20 11:01:57;;;;;;;20.35;15.65;;;845.40;1817.60;;;;;;4988771;28;20018;-62
2023/08/20 11:04:34;;;;;;;16.58;14.63;;;845.70;1843.20;;;;;;4988564;28;20034;-60
2023/08/20 11:07:01;;;;;;;15.95;14.45;;;870.40;1792.00;;;;;;4988635;28;20022;-62
2023/08/20 11:09:30;;;;;;;13.98;12.68;;;870.40;1766.40;;;;;;4978527;28;20035;-62
2023/08/20 11:11:57;;;;;;;12.95;11.57;;;845.60;1715.20;;;;;;4969046;28;20033;-62
2023/08/20 11:14:24;;;;;;;12.55;11.32;;;845.30;1689.60;;;;;;4982041;28;20052;-62
2023/08/20 11:16:50;;;;;;;15.93;13.15;;;845.10;1689.60;;;;;;4988349;28;20141;-62
2023/08/20 11:19:21;;;;;;;15.23;13.82;;;845.20;1715.20;;;;;;4987914;28;20037;-62
2023/08/20 11:21:47;;;;;;;13.07;11.77;;;845.40;1740.80;;;;;;4987543;28;20058;-62
2023/08/20 11:24:15;;;;;;;13.45;11.88;;;845.20;1740.80;;;;;;4988291;28;20050;-63
2023/08/20 11:26:42;;;;;;;15.95;12.57;;;845.40;1715.20;;;;;;4988062;28;20030;-62
2023/08/20 11:29:11;;;;;;;19.25;14.25;;;845.70;1715.20;;;;;;4987829;28;20034;-61
2023/08/20 11:31:37;;;;;;;13.50;11.85;;;845.50;1715.20;;;;;;4988299;28;20030;-62
2023/08/20 11:34:03;;;;;;;20.10;12.82;;;845.60;1740.80;;;;;;4988056;28;20205;-61
2023/08/20 11:36:29;;;;;;;15.15;13.63;;;845.40;1740.80;;;;;;4987643;28;20432;-61
2023/08/20 11:38:56;;;;;;;14.55;13.20;;;845.40;1740.80;;;;;;4988006;28;20030;-62
2023/08/20 11:41:22;;;;;;;13.82;12.63;;;845.40;1740.80;;;;;;4987939;28;20621;-62
2023/08/20 11:43:49;;;;;;;15.18;13.15;;;870.40;1715.20;;;;;;4988134;28;20539;-62
2023/08/20 11:46:17;;;;;;;14.05;12.63;;;845.70;1715.20;;;;;;4988531;28;20050;-62
2023/08/20 11:49:06;;;;;;;13.82;12.38;;;870.40;1740.80;;;;;;4987588;28;20069;-62
2023/08/20 11:51:37;;;;;;;14.63;13.10;;;845.70;1740.80;;;;;;4987990;28;20041;-62
2023/08/20 11:54:15;;;;;;;15.43;13.02;;;870.50;1766.40;;;;;;4988162;28;20031;-63
2023/08/20 11:56:50;;;;;;;18.70;13.90;;;870.40;1740.80;;;;;;4987577;28;20034;-62
2023/08/20 11:59:18;;;;;;;15.25;12.68;;;845.70;1740.80;;;;;;4989334;28;20046;-62
2023/08/20 12:01:54;;;;;;;14.73;13.35;;;845.70;1766.40;;;;;;4990998;28;20018;-61
2023/08/20 12:04:25;;;;;;;14.02;12.50;;;845.50;1766.40;;;;;;4992042;28;20104;-62
2023/08/20 12:07:05;;;;;;;17.80;12.70;;;845.70;1792.00;;;;;;4991413;28;20027;-61
2023/08/20 12:09:31;;;;;;;14.45;12.95;;;845.70;1740.80;;;;;;4991674;28;20138;-62
2023/08/20 12:11:58;;;;;;;16.13;14.52;;;845.70;1740.80;;;;;;4991114;28;20030;-62